Time;durP1;ratioP1;P1;durP2;ratioP2;P2;SDS_P1;SDS_P2;PMS_P1;PMS_P2;Temp;Humidity;BMP_temperature;BMP_pressure;BME280_temperature;BME280_humidity;BME280_pressure;Samples;Min_cycle;Max_cycle;Signal;HPM_P1;HPM_P2
2023/09/08 00:00:49;;;;;;;2.58;1.75;;;19.80;49.80;;;;;;5017978;28;20104;-74
2023/09/08 00:03:15;;;;;;;2.33;1.60;;;19.90;49.70;;;;;;5018446;28;20029;-74
2023/09/08 00:05:41;;;;;;;2.50;1.88;;;20.00;49.60;;;;;;5027248;28;20472;-75
2023/09/08 00:08:07;;;;;;;1.73;1.63;;;20.10;49.50;;;;;;5015604;28;20382;-74
2023/09/08 00:10:33;;;;;;;2.63;1.70;;;20.30;49.40;;;;;;5022794;28;20029;-73
2023/09/08 00:12:58;;;;;;;3.63;1.90;;;20.30;49.30;;;;;;5035272;28;20030;-74
2023/09/08 00:15:24;;;;;;;2.47;1.73;;;20.40;49.20;;;;;;5033922;28;20030;-75
2023/09/08 00:17:49;;;;;;;2.33;1.75;;;20.50;49.20;;;;;;5034870;28;20053;-75
2023/09/08 00:20:15;;;;;;;2.75;1.67;;;20.60;49.10;;;;;;5033795;28;20087;-75
2023/09/08 00:22:41;;;;;;;2.25;1.70;;;20.60;49.10;;;;;;5024881;28;20455;-74
2023/09/08 00:25:06;;;;;;;2.38;1.65;;;20.70;49.00;;;;;;5034572;28;20372;-73
2023/09/08 00:27:32;;;;;;;3.10;1.90;;;20.80;48.80;;;;;;5034934;28;20033;-74
2023/09/08 00:29:58;;;;;;;4.15;1.60;;;20.80;48.80;;;;;;5034721;28;20036;-75
2023/09/08 00:32:24;;;;;;;2.75;1.77;;;20.80;48.80;;;;;;5032613;28;20033;-74
2023/09/08 00:34:49;;;;;;;2.42;1.90;;;20.80;48.80;;;;;;5033332;28;20076;-75
2023/09/08 00:37:15;;;;;;;2.05;1.60;;;20.80;48.70;;;;;;5034544;28;20041;-74
2023/09/08 00:39:41;;;;;;;2.85;1.73;;;20.80;48.70;;;;;;5023941;28;20034;-73
2023/09/08 00:42:07;;;;;;;2.03;1.75;;;20.90;48.70;;;;;;5032025;28;20474;-74
2023/09/08 00:44:33;;;;;;;2.55;1.80;;;20.80;48.60;;;;;;5025267;28;20599;-74
2023/09/08 00:46:59;;;;;;;1.85;1.60;;;20.80;48.70;;;;;;5014541;28;20380;-73
2023/09/08 00:49:25;;;;;;;2.20;1.70;;;20.80;48.80;;;;;;5024586;28;20029;-73
2023/09/08 00:51:51;;;;;;;3.83;1.95;;;20.80;48.80;;;;;;5029054;28;20487;-74
2023/09/08 00:54:18;;;;;;;3.28;1.88;;;20.80;48.70;;;;;;5027825;28;20030;-73
2023/09/08 00:56:45;;;;;;;3.55;1.83;;;20.70;48.70;;;;;;5033235;28;20387;-74
2023/09/08 00:59:11;;;;;;;2.45;1.92;;;20.70;48.80;;;;;;5029211;28;20029;-75
2023/09/08 01:01:37;;;;;;;3.38;2.00;;;20.70;48.90;;;;;;5014552;28;20033;-74
2023/09/08 01:04:02;;;;;;;3.22;1.83;;;20.60;48.90;;;;;;5030203;28;20049;-73
2023/09/08 01:06:28;;;;;;;3.17;2.03;;;20.60;49.00;;;;;;5022131;28;20017;-74
2023/09/08 01:08:55;;;;;;;3.30;2.05;;;20.60;49.00;;;;;;5033874;28;20072;-73
2023/09/08 01:11:22;;;;;;;3.00;2.00;;;20.60;49.00;;;;;;5019056;28;20072;-73
2023/09/08 01:13:47;;;;;;;3.17;2.15;;;20.60;49.10;;;;;;5026038;28;20049;-74
2023/09/08 01:16:13;;;;;;;4.18;1.98;;;20.50;49.00;;;;;;5017613;28;20061;-74
2023/09/08 01:18:39;;;;;;;2.60;2.20;;;20.50;49.10;;;;;;5012509;28;20140;-74
2023/09/08 01:21:40;;;;;;;3.42;2.17;;;20.40;49.10;;;;;;5023807;28;20072;-74
2023/09/08 01:24:11;;;;;;;2.83;2.10;;;20.30;49.50;;;;;;5028446;28;20037;-75
2023/09/08 01:26:41;;;;;;;3.10;2.25;;;20.30;49.30;;;;;;5018196;28;20026;-74
2023/09/08 01:29:08;;;;;;;2.60;2.08;;;20.20;49.40;;;;;;5028572;28;20029;-74
2023/09/08 01:31:34;;;;;;;2.45;1.80;;;20.20;49.50;;;;;;5021863;28;20061;-74
2023/09/08 01:34:04;;;;;;;2.85;2.17;;;20.10;49.50;;;;;;5014253;28;20038;-73
2023/09/08 01:36:30;;;;;;;2.90;2.22;;;20.10;49.60;;;;;;5015936;28;20030;-75
2023/09/08 01:38:55;;;;;;;6.10;2.20;;;20.00;49.70;;;;;;5022669;28;20115;-74
2023/09/08 01:41:21;;;;;;;3.03;2.00;;;20.00;49.90;;;;;;5031761;28;20097;-75
2023/09/08 01:43:46;;;;;;;2.70;2.00;;;20.00;49.90;;;;;;5019498;28;20460;-75
2023/09/08 01:46:13;;;;;;;2.85;2.10;;;20.00;49.90;;;;;;5016518;28;20026;-75
2023/09/08 01:48:38;;;;;;;2.75;2.20;;;20.00;49.90;;;;;;5032667;28;20031;-74
2023/09/08 01:51:04;;;;;;;3.58;3.25;;;20.00;49.90;;;;;;5017371;28;20022;-74
2023/09/08 01:53:29;;;;;;;3.78;2.70;;;19.90;50.50;;;;;;5022967;28;20025;-74
2023/09/08 01:55:55;;;;;;;3.78;2.70;;;19.80;50.00;;;;;;5022255;28;20033;-74
2023/09/08 01:58:21;;;;;;;3.03;2.35;;;19.80;50.10;;;;;;5017128;28;20483;-74
2023/09/08 02:00:51;;;;;;;3.60;2.50;;;19.70;50.80;;;;;;5031231;28;20029;-75
2023/09/08 02:03:17;;;;;;;4.45;2.53;;;19.60;50.20;;;;;;5033470;28;20021;-73
2023/09/08 02:05:42;;;;;;;3.45;2.40;;;19.60;50.40;;;;;;5033071;28;20428;-74
2023/09/08 02:08:08;;;;;;;3.90;2.67;;;19.60;50.40;;;;;;5016088;28;20080;-75
2023/09/08 02:10:33;;;;;;;4.07;2.65;;;19.60;50.40;;;;;;5033448;28;20092;-75
2023/09/08 02:12:59;;;;;;;3.83;2.60;;;19.60;50.50;;;;;;5023966;28;20022;-75
2023/09/08 02:15:25;;;;;;;3.58;2.60;;;19.50;50.40;;;;;;5012354;28;20041;-74
2023/09/08 02:17:54;;;;;;;3.78;2.50;;;19.50;50.40;;;;;;5013563;28;20026;-73
2023/09/08 02:20:20;;;;;;;3.90;2.58;;;19.50;50.60;;;;;;5013801;28;20021;-73
2023/09/08 02:22:49;;;;;;;2.80;2.30;;;19.60;50.60;;;;;;5013660;28;20121;-74
2023/09/08 02:25:14;;;;;;;4.38;3.00;;;19.60;51.10;;;;;;5021752;28;20383;-75
2023/09/08 02:27:40;;;;;;;6.30;2.90;;;19.60;50.50;;;;;;5032492;28;20037;-75
2023/09/08 02:30:06;;;;;;;3.55;2.85;;;19.60;50.50;;;;;;5033103;28;20057;-73
2023/09/08 02:32:32;;;;;;;5.32;3.40;;;19.60;50.60;;;;;;5033209;28;20025;-75
2023/09/08 02:34:57;;;;;;;4.38;3.20;;;19.60;50.70;;;;;;5033067;28;20061;-75
2023/09/08 02:37:23;;;;;;;4.07;2.80;;;19.50;50.60;;;;;;5028057;28;20498;-74
2023/09/08 02:39:49;;;;;;;4.32;2.90;;;19.60;50.60;;;;;;5026072;28;20052;-75
2023/09/08 02:42:14;;;;;;;4.15;3.00;;;19.60;50.70;;;;;;5013528;28;20030;-75
2023/09/08 02:44:40;;;;;;;3.95;2.90;;;19.60;50.70;;;;;;5016117;28;20448;-73
2023/09/08 02:47:06;;;;;;;4.82;2.60;;;19.70;50.60;;;;;;5024710;28;20025;-74
2023/09/08 02:49:32;;;;;;;4.30;2.92;;;19.70;50.60;;;;;;5020001;28;20037;-75
2023/09/08 02:51:57;;;;;;;4.53;2.83;;;19.70;50.60;;;;;;5032396;28;20080;-74
2023/09/08 02:54:23;;;;;;;4.10;2.80;;;19.70;50.50;;;;;;5031091;28;20556;-74
2023/09/08 02:56:49;;;;;;;5.00;3.00;;;19.80;50.60;;;;;;5033436;28;20072;-74
2023/09/08 02:59:14;;;;;;;4.43;2.50;;;19.80;50.50;;;;;;5031613;28;20029;-74
2023/09/08 03:01:40;;;;;;;4.30;2.70;;;19.80;50.50;;;;;;5036320;28;20025;-74
2023/09/08 03:04:06;;;;;;;3.90;2.70;;;19.80;50.50;;;;;;5025816;28;20034;-74
2023/09/08 03:06:31;;;;;;;4.05;2.63;;;19.80;50.50;;;;;;5020312;28;20115;-75
2023/09/08 03:08:58;;;;;;;4.07;2.70;;;19.80;50.60;;;;;;5019056;28;20128;-75
2023/09/08 03:11:24;;;;;;;3.95;2.65;;;19.80;50.60;;;;;;5031508;28;20041;-75
2023/09/08 03:13:50;;;;;;;3.13;2.40;;;19.80;50.60;;;;;;5025753;28;20034;-75
2023/09/08 03:16:16;;;;;;;3.90;2.45;;;19.90;51.20;;;;;;5028372;28;20033;-74
2023/09/08 03:18:42;;;;;;;3.40;2.53;;;19.90;50.50;;;;;;5028385;28;20021;-75
2023/09/08 03:21:10;;;;;;;5.35;2.50;;;19.90;50.50;;;;;;5016309;28;20530;-74
2023/09/08 03:23:41;;;;;;;3.40;2.40;;;19.90;50.40;;;;;;5032472;28;20029;-73
2023/09/08 03:26:07;;;;;;;3.47;2.58;;;19.80;50.40;;;;;;5029218;28;20540;-73
2023/09/08 03:28:34;;;;;;;4.13;2.80;;;19.80;50.40;;;;;;5034672;28;20108;-73
2023/09/08 03:31:01;;;;;;;3.60;2.50;;;19.80;50.50;;;;;;5033839;28;20034;-74
2023/09/08 03:33:27;;;;;;;2.83;2.35;;;19.80;50.60;;;;;;5035659;28;20379;-75
2023/09/08 03:35:53;;;;;;;4.47;2.55;;;19.80;50.50;;;;;;5028218;28;20046;-74
2023/09/08 03:38:18;;;;;;;3.45;2.35;;;19.80;50.60;;;;;;5034050;28;20028;-74
2023/09/08 03:40:44;;;;;;;3.60;2.50;;;19.80;50.50;;;;;;5022778;28;20042;-74
2023/09/08 03:43:10;;;;;;;3.83;2.67;;;19.80;50.50;;;;;;5035545;28;20036;-75
2023/09/08 03:45:36;;;;;;;4.88;2.45;;;19.90;50.50;;;;;;5032500;28;20033;-74
2023/09/08 03:48:01;;;;;;;3.67;2.47;;;19.80;50.50;;;;;;5034346;28;20468;-74
2023/09/08 03:50:27;;;;;;;2.78;2.30;;;19.80;50.50;;;;;;5034151;28;20043;-75
2023/09/08 03:52:53;;;;;;;3.67;2.40;;;19.90;50.50;;;;;;5018966;28;20022;-75
2023/09/08 03:55:19;;;;;;;3.55;2.40;;;19.90;50.50;;;;;;5016506;28;20112;-74
2023/09/08 03:57:45;;;;;;;3.65;2.45;;;19.90;50.50;;;;;;5015602;28;20383;-75
2023/09/08 04:00:11;;;;;;;2.92;2.40;;;19.90;50.40;;;;;;5029180;28;20108;-75
2023/09/08 04:02:37;;;;;;;3.70;2.40;;;19.90;50.40;;;;;;5034641;28;20087;-75
2023/09/08 04:05:03;;;;;;;4.10;2.60;;;19.80;50.30;;;;;;5032007;28;20434;-74
2023/09/08 04:07:28;;;;;;;3.80;2.47;;;19.80;50.50;;;;;;5022439;28;20033;-74
2023/09/08 04:09:54;;;;;;;3.35;2.40;;;19.80;50.60;;;;;;5023152;28;20033;-74
2023/09/08 04:12:20;;;;;;;4.53;2.60;;;19.90;50.60;;;;;;5034276;28;20025;-73
2023/09/08 04:14:45;;;;;;;5.28;2.53;;;19.90;51.30;;;;;;5029256;28;20469;-74
2023/09/08 04:17:11;;;;;;;3.42;2.35;;;20.00;50.60;;;;;;5033646;28;20033;-75
2023/09/08 04:19:37;;;;;;;3.47;2.35;;;20.00;50.50;;;;;;5028525;28;20036;-74
2023/09/08 04:22:02;;;;;;;3.83;2.25;;;20.10;50.50;;;;;;5015150;28;20032;-74
2023/09/08 04:24:28;;;;;;;3.38;2.35;;;20.00;50.40;;;;;;5014960;28;20045;-74
2023/09/08 04:26:54;;;;;;;2.97;2.20;;;20.00;50.40;;;;;;5026098;28;20021;-75
2023/09/08 04:29:19;;;;;;;3.63;2.40;;;20.00;50.50;;;;;;5015117;28;20040;-75
2023/09/08 04:31:45;;;;;;;3.67;2.58;;;19.90;50.50;;;;;;5015126;28;20032;-75
2023/09/08 04:34:11;;;;;;;4.05;2.70;;;19.90;50.50;;;;;;5014965;28;20072;-74
2023/09/08 04:36:37;;;;;;;4.00;2.88;;;19.80;50.60;;;;;;5020727;28;20030;-74
2023/09/08 04:39:02;;;;;;;3.15;2.40;;;19.80;50.60;;;;;;5033720;28;20029;-74
2023/09/08 04:41:28;;;;;;;3.13;2.55;;;19.70;50.80;;;;;;5030603;28;20053;-74
2023/09/08 04:43:55;;;;;;;4.68;2.80;;;19.60;51.00;;;;;;5025557;28;20078;-74
2023/09/08 04:46:20;;;;;;;4.70;2.60;;;19.50;51.10;;;;;;5033858;28;20025;-74
2023/09/08 04:48:46;;;;;;;3.88;2.40;;;19.40;51.40;;;;;;5032103;28;20380;-74
2023/09/08 04:51:12;;;;;;;4.60;2.88;;;19.40;51.40;;;;;;5019345;28;20387;-74
2023/09/08 04:53:37;;;;;;;4.05;2.60;;;19.40;51.50;;;;;;5032004;28;20025;-76
2023/09/08 04:56:03;;;;;;;3.22;2.33;;;19.40;51.50;;;;;;5026083;28;20025;-72
2023/09/08 04:58:29;;;;;;;3.80;2.80;;;19.30;51.50;;;;;;5025878;28;20022;-75
2023/09/08 05:00:55;;;;;;;4.53;2.38;;;19.20;51.60;;;;;;5014829;28;20026;-74
2023/09/08 05:03:21;;;;;;;3.65;2.33;;;19.10;51.70;;;;;;5023610;28;20029;-73
2023/09/08 05:05:47;;;;;;;3.10;2.40;;;19.00;51.80;;;;;;5018411;28;20402;-81
2023/09/08 05:08:12;;;;;;;4.68;2.40;;;18.90;51.90;;;;;;5023528;28;20044;-79
2023/09/08 05:10:38;;;;;;;4.25;2.47;;;18.90;52.00;;;;;;5013246;28;20105;-79
2023/09/08 05:13:03;;;;;;;3.78;2.60;;;18.90;52.20;;;;;;5018140;28;20026;-79
2023/09/08 05:15:30;;;;;;;3.88;2.45;;;18.80;52.20;;;;;;5032937;28;20052;-77
2023/09/08 05:17:56;;;;;;;4.63;2.58;;;18.70;52.30;;;;;;5032719;28;20064;-78
2023/09/08 05:20:22;;;;;;;4.30;2.58;;;18.70;52.40;;;;;;5024969;28;20403;-76
2023/09/08 05:22:48;;;;;;;3.10;2.38;;;18.60;52.40;;;;;;5015024;28;20125;-76
2023/09/08 05:25:13;;;;;;;3.83;2.40;;;18.60;52.60;;;;;;5025145;28;20109;-74
2023/09/08 05:27:39;;;;;;;4.53;2.33;;;18.60;52.60;;;;;;5032788;28;20033;-77
2023/09/08 05:30:05;;;;;;;3.33;2.25;;;18.50;52.60;;;;;;5015217;28;20030;-77
2023/09/08 05:32:31;;;;;;;4.47;2.60;;;18.50;52.60;;;;;;5020352;28;20053;-76
2023/09/08 05:34:57;;;;;;;3.00;2.15;;;18.50;52.60;;;;;;5020573;28;20049;-73
2023/09/08 05:37:24;;;;;;;4.28;2.25;;;18.50;52.60;;;;;;5025397;28;20041;-73
2023/09/08 05:39:49;;;;;;;2.45;1.92;;;18.60;52.60;;;;;;5031387;28;20025;-75
2023/09/08 05:42:15;;;;;;;3.78;2.03;;;18.60;52.50;;;;;;5032014;28;20075;-77
2023/09/08 05:44:41;;;;;;;4.18;2.20;;;18.60;52.40;;;;;;5016452;28;20030;-76
2023/09/08 05:47:07;;;;;;;2.47;1.83;;;18.70;52.40;;;;;;5013292;28;20037;-75
2023/09/08 05:49:32;;;;;;;4.30;2.10;;;18.70;52.30;;;;;;5012090;28;20029;-78
2023/09/08 05:51:58;;;;;;;2.95;2.00;;;18.70;52.20;;;;;;5013408;28;20105;-76
2023/09/08 05:54:24;;;;;;;3.13;1.83;;;18.80;52.20;;;;;;5021392;28;20037;-77
2023/09/08 05:56:49;;;;;;;2.83;2.13;;;18.80;52.20;;;;;;5016569;28;20022;-73
2023/09/08 05:59:15;;;;;;;2.83;1.90;;;18.80;52.10;;;;;;5019795;28;20482;-76
2023/09/08 06:01:41;;;;;;;1.90;1.65;;;18.90;52.10;;;;;;5032761;28;20036;-72
2023/09/08 06:04:07;;;;;;;2.75;1.77;;;18.90;52.10;;;;;;5027986;28;20047;-73
2023/09/08 06:06:33;;;;;;;4.50;2.00;;;19.00;52.00;;;;;;5031089;28;20434;-73
2023/09/08 06:08:58;;;;;;;3.10;1.70;;;19.00;51.80;;;;;;5031852;28;20080;-71
2023/09/08 06:11:24;;;;;;;2.55;1.80;;;19.10;51.60;;;;;;5033142;28;20029;-73
2023/09/08 06:13:49;;;;;;;2.28;1.80;;;19.10;51.50;;;;;;5016727;28;20026;-72
2023/09/08 06:16:15;;;;;;;2.95;1.65;;;19.10;51.40;;;;;;5015006;28;20057;-72
2023/09/08 06:18:41;;;;;;;2.78;1.88;;;19.10;51.40;;;;;;5021253;28;20124;-70
2023/09/08 06:21:07;;;;;;;3.00;2.05;;;19.20;51.30;;;;;;5013169;28;20026;-72
2023/09/08 06:23:33;;;;;;;2.10;1.90;;;19.10;51.10;;;;;;5027037;28;20105;-69
2023/09/08 06:26:00;;;;;;;4.65;1.98;;;19.20;51.50;;;;;;5032459;28;20065;-70
2023/09/08 06:28:27;;;;;;;3.17;1.90;;;19.30;51.80;;;;;;5035756;28;20021;-71
2023/09/08 06:30:53;;;;;;;3.78;2.03;;;19.40;52.00;;;;;;5032958;28;20056;-72
2023/09/08 06:33:19;;;;;;;2.60;1.88;;;19.60;51.60;;;;;;5026923;28;20490;-73
2023/09/08 06:35:47;;;;;;;2.72;2.00;;;19.60;51.50;;;;;;5036765;28;20057;-71
2023/09/08 06:38:12;;;;;;;2.25;1.88;;;19.70;51.50;;;;;;5028777;28;20026;-71
2023/09/08 06:40:38;;;;;;;3.30;2.00;;;19.80;51.50;;;;;;5029742;28;20037;-76
2023/09/08 06:43:04;;;;;;;2.78;1.98;;;19.90;51.60;;;;;;5026687;28;20510;-71
2023/09/08 06:45:30;;;;;;;2.55;1.80;;;20.00;51.50;;;;;;5028095;28;20034;-75
2023/09/08 06:47:55;;;;;;;2.20;1.80;;;20.10;51.20;;;;;;5017307;28;20030;-73
2023/09/08 06:50:22;;;;;;;2.15;1.75;;;20.20;50.90;;;;;;5017341;28;20045;-74
2023/09/08 06:52:51;;;;;;;2.38;1.48;;;20.20;50.60;;;;;;5022783;28;20036;-75
2023/09/08 06:55:17;;;;;;;1.65;1.50;;;20.20;50.30;;;;;;5021411;28;20088;-73
2023/09/08 06:57:44;;;;;;;2.35;1.55;;;20.20;50.20;;;;;;5026147;28;20034;-73
2023/09/08 07:00:11;;;;;;;2.80;1.58;;;20.20;50.00;;;;;;5035312;28;20467;-74
2023/09/08 07:02:40;;;;;;;2.80;1.63;;;20.20;50.00;;;;;;5035251;28;20032;-77
2023/09/08 07:05:07;;;;;;;1.65;1.55;;;20.20;49.90;;;;;;5022369;28;20080;-74
2023/09/08 07:07:34;;;;;;;1.92;1.52;;;20.20;49.80;;;;;;5016929;28;20038;-74
2023/09/08 07:10:00;;;;;;;1.75;1.50;;;20.30;49.80;;;;;;5034712;28;20026;-72
2023/09/08 07:12:26;;;;;;;2.97;1.63;;;20.30;49.60;;;;;;5034561;28;20079;-73
2023/09/08 07:14:51;;;;;;;1.73;1.40;;;20.30;49.60;;;;;;5024979;28;20136;-73
2023/09/08 07:17:17;;;;;;;1.80;1.55;;;20.30;49.50;;;;;;5016717;28;20041;-75
2023/09/08 07:19:43;;;;;;;1.92;1.40;;;20.30;49.40;;;;;;5016208;28;20033;-73
2023/09/08 07:22:08;;;;;;;1.50;1.40;;;20.30;49.40;;;;;;5017448;28;20030;-71
2023/09/08 07:24:34;;;;;;;2.45;1.63;;;20.40;49.40;;;;;;5016377;28;20088;-70
2023/09/08 07:27:00;;;;;;;1.83;1.40;;;20.40;49.30;;;;;;5016219;28;20069;-69
2023/09/08 07:29:26;;;;;;;3.75;1.25;;;20.40;49.30;;;;;;5019721;28;20021;-70
2023/09/08 07:31:51;;;;;;;2.35;1.35;;;20.50;49.20;;;;;;5049728;28;20356;-72
2023/09/08 07:34:17;;;;;;;1.20;1.10;;;20.50;49.10;;;;;;5024638;28;20050;-69
2023/09/08 07:36:43;;;;;;;1.27;1.17;;;20.60;49.00;;;;;;5016194;28;20353;-72
2023/09/08 07:39:09;;;;;;;1.30;1.10;;;20.60;48.80;;;;;;5016522;28;20527;-74
2023/09/08 07:41:34;;;;;;;1.35;1.10;;;20.60;48.70;;;;;;5015881;28;20125;-73
2023/09/08 07:44:00;;;;;;;1.50;1.33;;;20.60;48.60;;;;;;5022175;28;20105;-71
2023/09/08 07:46:26;;;;;;;1.58;1.10;;;20.70;48.60;;;;;;5015793;28;20069;-72
2023/09/08 07:48:52;;;;;;;2.67;1.40;;;20.70;48.50;;;;;;5025810;28;20021;-70
2023/09/08 07:51:18;;;;;;;1.20;1.02;;;20.70;48.50;;;;;;5018747;28;20033;-70
2023/09/08 07:53:43;;;;;;;1.40;1.30;;;20.70;48.50;;;;;;5025464;28;20379;-73
2023/09/08 07:56:09;;;;;;;3.15;1.30;;;20.70;48.40;;;;;;5035655;28;20478;-70
2023/09/08 07:58:35;;;;;;;1.38;1.20;;;20.80;48.40;;;;;;5033370;28;20021;-67
2023/09/08 08:01:00;;;;;;;1.33;1.15;;;20.80;48.50;;;;;;5018787;28;20037;-71
2023/09/08 08:03:26;;;;;;;2.25;1.30;;;20.80;48.90;;;;;;5034271;28;20033;-71
2023/09/08 08:05:51;;;;;;;11.38;9.10;;;20.80;49.10;;;;;;5026263;28;20044;-70
2023/09/08 08:08:17;;;;;;;1.67;1.20;;;20.90;49.40;;;;;;5027573;28;20096;-75
2023/09/08 08:10:43;;;;;;;2.35;1.50;;;21.00;49.50;;;;;;5035104;28;20032;-79
2023/09/08 08:13:09;;;;;;;1.65;1.55;;;21.10;49.50;;;;;;5026054;28;20033;-74
2023/09/08 08:15:39;;;;;;;1.75;1.30;;;21.20;49.40;;;;;;5022641;28;20419;-78
2023/09/08 08:18:06;;;;;;;1.70;1.55;;;21.30;49.40;;;;;;5026867;28;20029;-78
2023/09/08 08:20:34;;;;;;;2.45;1.10;;;21.30;49.40;;;;;;5024559;28;20025;-78
2023/09/08 08:23:04;;;;;;;3.30;1.52;;;21.40;49.50;;;;;;5028093;28;20104;-75
2023/09/08 08:25:30;;;;;;;2.55;1.65;;;21.50;49.60;;;;;;5024992;28;20053;-76
2023/09/08 08:28:00;;;;;;;4.40;1.65;;;21.60;49.30;;;;;;5023598;28;20088;-74
2023/09/08 08:30:26;;;;;;;1.50;1.33;;;21.60;49.30;;;;;;5031884;28;20033;-80
2023/09/08 08:32:53;;;;;;;1.35;1.25;;;21.70;49.50;;;;;;5019832;28;20486;-80
2023/09/08 08:35:19;;;;;;;1.52;1.42;;;21.80;49.30;;;;;;5034044;28;20045;-77
2023/09/08 08:37:45;;;;;;;3.10;1.60;;;21.80;48.60;;;;;;5034729;28;20034;-79
2023/09/08 08:40:14;;;;;;;3.03;1.50;;;21.90;48.30;;;;;;5019220;28;20133;-72
2023/09/08 08:42:41;;;;;;;2.20;1.50;;;21.80;48.10;;;;;;5021405;28;20068;-78
2023/09/08 08:45:07;;;;;;;2.25;1.63;;;21.90;48.10;;;;;;5033837;28;20103;-77
2023/09/08 08:47:33;;;;;;;1.33;1.17;;;21.90;48.00;;;;;;5030787;28;20117;-77
2023/09/08 08:49:59;;;;;;;3.47;1.42;;;21.90;47.90;;;;;;5015928;28;20104;-79
2023/09/08 08:52:29;;;;;;;1.52;1.20;;;21.90;47.90;;;;;;5016290;28;20034;-77
2023/09/08 08:54:55;;;;;;;3.63;1.20;;;21.90;47.90;;;;;;5025670;28;20080;-78
2023/09/08 08:57:22;;;;;;;1.80;1.25;;;22.00;47.70;;;;;;5020665;28;20095;-73
2023/09/08 08:59:51;;;;;;;1.30;1.20;;;22.00;47.80;;;;;;5014856;28;20076;-71
2023/09/08 09:02:18;;;;;;;2.35;1.42;;;22.00;47.70;;;;;;5030090;28;20029;-73
2023/09/08 09:04:45;;;;;;;1.60;1.38;;;22.00;47.80;;;;;;5032845;28;20037;-73
2023/09/08 09:07:11;;;;;;;1.83;1.30;;;22.10;47.70;;;;;;5034554;28;20069;-77
2023/09/08 09:09:39;;;;;;;2.33;1.52;;;22.10;47.70;;;;;;5051275;28;20033;-78
2023/09/08 09:12:05;;;;;;;1.40;1.30;;;22.10;47.70;;;;;;5034135;28;20044;-75
2023/09/08 09:14:34;;;;;;;2.85;1.73;;;22.10;47.70;;;;;;5020056;28;20040;-75
2023/09/08 09:17:01;;;;;;;2.10;1.50;;;22.20;47.70;;;;;;5033930;28;20490;-74
2023/09/08 09:19:28;;;;;;;2.25;1.52;;;22.20;47.70;;;;;;5023442;28;20026;-74
2023/09/08 09:21:55;;;;;;;2.35;1.40;;;22.30;47.60;;;;;;5012859;28;20064;-76
2023/09/08 09:24:33;;;;;;;1.65;1.40;;;22.30;47.50;;;;;;5040383;28;20148;-75
2023/09/08 09:27:00;;;;;;;3.55;1.60;;;22.30;47.70;;;;;;5040627;28;20108;-75
2023/09/08 09:29:27;;;;;;;2.42;1.38;;;22.30;47.70;;;;;;5040239;28;20112;-75
2023/09/08 09:31:54;;;;;;;4.00;1.60;;;22.30;47.50;;;;;;5044282;28;20025;-75
2023/09/08 09:34:21;;;;;;;1.65;1.10;;;22.30;47.70;;;;;;5043374;28;20036;-74
2023/09/08 09:36:50;;;;;;;1.65;1.27;;;22.40;47.70;;;;;;5042320;28;20058;-75
2023/09/08 09:39:20;;;;;;;2.15;1.33;;;22.40;47.70;;;;;;5043414;28;20025;-75
2023/09/08 09:41:53;;;;;;;1.85;1.40;;;22.40;47.60;;;;;;5043597;28;20387;-74
2023/09/08 09:44:19;;;;;;;1.52;1.30;;;22.50;47.70;;;;;;5041008;28;20028;-75
2023/09/08 09:46:45;;;;;;;1.83;1.30;;;22.50;47.50;;;;;;5043128;28;20033;-73
2023/09/08 09:49:19;;;;;;;62.88;50.08;;;22.50;47.40;;;;;;5042790;28;20335;-73
2023/09/08 09:51:47;;;;;;;2.13;1.37;;;22.60;47.10;;;;;;5039924;28;20029;-75
2023/09/08 09:54:13;;;;;;;1.63;1.20;;;22.50;46.90;;;;;;5040927;28;20076;-73
2023/09/08 09:56:40;;;;;;;1.70;1.30;;;22.50;47.00;;;;;;5043825;28;20028;-72
2023/09/08 09:59:10;;;;;;;2.75;1.10;;;22.50;46.80;;;;;;5040144;28;20025;-78
2023/09/08 10:01:36;;;;;;;1.80;1.13;;;22.60;46.90;;;;;;5041175;28;20019;-77
2023/09/08 10:04:03;;;;;;;1.48;1.10;;;22.60;46.60;;;;;;5043718;28;20638;-77
2023/09/08 10:06:33;;;;;;;1.63;1.27;;;22.60;46.40;;;;;;5046183;28;20052;-78
2023/09/08 10:09:13;;;;;;;2.40;1.25;;;22.60;46.30;;;;;;5043853;28;20029;-78
2023/09/08 10:11:48;;;;;;;1.75;1.15;;;22.60;46.00;;;;;;5044548;28;20026;-79
2023/09/08 10:14:18;;;;;;;1.20;1.10;;;22.60;46.20;;;;;;5042099;28;20021;-77
2023/09/08 10:16:49;;;;;;;1.23;1.00;;;22.60;46.00;;;;;;5042626;28;20100;-76
2023/09/08 10:19:17;;;;;;;2.05;0.98;;;22.70;46.00;;;;;;5047699;28;20029;-76
2023/09/08 10:21:46;;;;;;;1.45;1.05;;;22.70;45.60;;;;;;5047172;28;20021;-78
2023/09/08 10:24:38;;;;;;;1.27;1.10;;;22.80;45.40;;;;;;5045606;28;20053;-79
2023/09/08 10:27:07;;;;;;;3.00;1.15;;;22.80;45.20;;;;;;5041719;28;20034;-77
2023/09/08 10:29:34;;;;;;;1.00;0.90;;;22.80;45.20;;;;;;5041772;28;20021;-78
2023/09/08 10:32:00;;;;;;;1.92;1.20;;;22.90;45.00;;;;;;5045177;28;20410;-77
2023/09/08 10:34:29;;;;;;;1.10;1.00;;;22.80;44.90;;;;;;5045361;28;20475;-83
2023/09/08 10:36:55;;;;;;;1.42;0.95;;;22.90;44.80;;;;;;5045797;28;20080;-76
2023/09/08 10:39:41;;;;;;;1.08;0.95;;;22.90;44.50;;;;;;5046098;28;20033;-77
2023/09/08 10:42:20;;;;;;;1.08;0.70;;;22.90;44.40;;;;;;5040277;28;20076;-76
2023/09/08 10:44:51;;;;;;;0.77;0.77;;;22.90;43.70;;;;;;5050604;28;20032;-77
2023/09/08 10:47:23;;;;;;;1.65;1.45;;;22.90;43.80;;;;;;5041369;28;20029;-76
2023/09/08 10:49:53;;;;;;;1.58;1.23;;;22.90;43.80;;;;;;5046534;28;20409;-77
2023/09/08 10:52:22;;;;;;;1.38;1.15;;;22.90;43.50;;;;;;5047161;28;20025;-75
2023/09/08 10:54:49;;;;;;;1.88;1.17;;;22.90;43.50;;;;;;5042715;28;20084;-73
2023/09/08 10:57:21;;;;;;;3.90;2.40;;;22.90;43.40;;;;;;5036689;28;20053;-76
2023/09/08 10:59:56;;;;;;;1.73;0.93;;;22.90;43.60;;;;;;5034520;28;20025;-77
2023/09/08 11:02:41;;;;;;;1.95;1.38;;;22.90;43.60;;;;;;5042460;28;20021;-80
2023/09/08 11:05:13;;;;;;;1.20;1.00;;;23.00;43.60;;;;;;5043288;28;20021;-77
2023/09/08 11:07:39;;;;;;;1.67;1.25;;;23.00;43.50;;;;;;5046893;28;20455;-77
2023/09/08 11:10:06;;;;;;;1.50;0.90;;;23.10;43.30;;;;;;5044881;28;20029;-78
2023/09/08 11:12:32;;;;;;;1.67;1.10;;;23.10;43.40;;;;;;5045963;28;20024;-79
2023/09/08 11:15:04;;;;;;;1.23;0.93;;;23.10;43.20;;;;;;5044809;28;20034;-79
2023/09/08 11:17:30;;;;;;;0.85;0.85;;;23.20;43.30;;;;;;5046763;28;20029;-79
2023/09/08 11:19:56;;;;;;;1.23;0.80;;;23.20;43.30;;;;;;5044561;28;20033;-80
2023/09/08 11:22:26;;;;;;;1.10;1.00;;;23.30;43.40;;;;;;5048864;28;20021;-81
2023/09/08 11:24:53;;;;;;;1.23;1.13;;;23.30;43.40;;;;;;5045940;28;20419;-81
2023/09/08 11:27:20;;;;;;;1.33;1.20;;;23.40;43.20;;;;;;5047348;28;20026;-81
2023/09/08 11:29:47;;;;;;;1.20;1.10;;;23.40;42.70;;;;;;5045060;28;20021;-81
2023/09/08 11:32:13;;;;;;;1.30;0.95;;;23.40;43.50;;;;;;5045961;28;20439;-82
2023/09/08 11:34:40;;;;;;;1.48;1.20;;;23.40;43.30;;;;;;5040641;28;20128;-80
2023/09/08 11:37:13;;;;;;;1.63;1.15;;;23.40;42.20;;;;;;5042953;28;20028;-79
2023/09/08 11:39:44;;;;;;;1.00;0.90;;;23.30;42.10;;;;;;5043612;28;20472;-81
2023/09/08 11:42:13;;;;;;;1.40;1.13;;;23.30;42.20;;;;;;5044859;28;20033;-76
2023/09/08 11:44:39;;;;;;;1.20;1.10;;;23.30;42.00;;;;;;5041133;28;20024;-77
2023/09/08 11:47:09;;;;;;;1.20;1.02;;;23.30;41.70;;;;;;5043425;28;20037;-77
2023/09/08 11:49:40;;;;;;;1.25;1.02;;;23.30;41.70;;;;;;5040834;28;20021;-77
2023/09/08 11:52:06;;;;;;;1.70;1.35;;;23.30;41.50;;;;;;5044583;28;20021;-78
2023/09/08 11:54:34;;;;;;;1.20;1.10;;;23.30;41.40;;;;;;5044833;28;20029;-76
2023/09/08 11:57:01;;;;;;;1.30;1.20;;;23.30;41.50;;;;;;5044592;28;20059;-77
2023/09/08 11:59:31;;;;;;;1.35;1.13;;;23.30;42.10;;;;;;5042649;28;20033;-76
2023/09/08 12:01:57;;;;;;;1.73;1.05;;;23.30;41.50;;;;;;5038876;28;20060;-76
2023/09/08 12:04:23;;;;;;;1.17;1.08;;;23.40;41.60;;;;;;5046714;28;20036;-78
2023/09/08 12:06:49;;;;;;;1.10;1.00;;;23.50;41.50;;;;;;5042231;28;20039;-79
2023/09/08 12:09:16;;;;;;;1.55;1.00;;;23.50;41.50;;;;;;5040984;28;20142;-72
2023/09/08 12:11:42;;;;;;;6.55;4.95;;;23.60;41.70;;;;;;5043948;28;20040;-80
2023/09/08 12:14:12;;;;;;;4.97;3.90;;;23.70;41.90;;;;;;5037292;28;20102;-76
2023/09/08 12:16:39;;;;;;;2.13;1.15;;;23.90;41.90;;;;;;5039806;28;20025;-72
2023/09/08 12:19:06;;;;;;;0.95;0.95;;;23.90;42.00;;;;;;5038608;28;20104;-72
2023/09/08 12:21:32;;;;;;;3.75;1.10;;;24.10;42.00;;;;;;5039748;28;20166;-73
2023/09/08 12:23:58;;;;;;;1.65;1.25;;;24.20;41.90;;;;;;5043315;28;20029;-72
2023/09/08 12:26:27;;;;;;;2.05;1.35;;;24.20;41.80;;;;;;5044148;28;20035;-80
2023/09/08 12:28:53;;;;;;;3.55;2.63;;;24.20;41.90;;;;;;5045424;28;20146;-80
2023/09/08 12:31:19;;;;;;;1.98;1.70;;;24.20;41.60;;;;;;5039999;28;20120;-79
2023/09/08 12:33:44;;;;;;;1.50;1.23;;;24.20;41.60;;;;;;5037102;28;20021;-79
2023/09/08 12:36:18;;;;;;;1.40;1.30;;;24.20;41.60;;;;;;5036335;28;20453;-77
2023/09/08 12:38:51;;;;;;;1.20;1.10;;;24.20;41.60;;;;;;5041421;28;20031;-75
2023/09/08 12:41:17;;;;;;;1.30;1.20;;;24.30;41.70;;;;;;5036193;28;20036;-78
2023/09/08 12:43:43;;;;;;;1.15;0.98;;;24.30;41.60;;;;;;5040688;28;20061;-79